Akogare — JPDL — position and weather

sailwx.info

Track history (hours):
 
Tides and Currents Weather Stations Pressure Air Temp Water Temp Dewpoint Dewpoint Depression Visibility Wind Speed Wind Dir Waves Ship Positions

Akogare (Japan)

Ship's website: http://www.akogare.or.jp/eng/top.html

Last reported at 2018-Apr-16 18:45 UTC. Time now 2018-Apr-20 06:34 UTC.
Position N 33°41' E 129°55'.

Length 52 m; draft 4.5 m.

Type: Sailing vessel. MMSI: 431005001.

Date/timePositionNaut miles runAvg speedWind from/ knotsBaromVisibWave heightAir tempDewpointWater temp
2018-Apr-16 18:45N 33°41' E 129°55'3 7.0
2018-Apr-16 18:20N 33°42' E 129°59'2 6.9
2018-Apr-16 18:00N 33°44' E 130°01'3 6.8
2018-Apr-16 17:30N 33°45' E 130°04'3 6.7
2018-Apr-16 17:00N 33°47' E 130°08'3 6.5
2018-Apr-16 16:30N 33°49' E 130°11'3 6.4
2018-Apr-16 16:00N 33°51' E 130°14'3 6.6
2018-Apr-16 15:30N 33°53' E 130°18'3 6.5
2018-Apr-16 15:00N 33°54' E 130°21'3 6.2
2018-Apr-16 14:30N 33°56' E 130°24'3 6.5
2018-Apr-16 14:00N 33°58' E 130°27'3 6.9
2018-Apr-16 13:30N 33°59' E 130°31'4 7.0
2018-Apr-16 12:59N 34°01' E 130°35'3 7.2
2018-Apr-16 12:30N 34°02' E 130°39'4 7.3
2018-Apr-16 12:00N 34°03' E 130°43'3 6.7
2018-Apr-16 11:30N 34°03' E 130°47'3 6.6
2018-Apr-16 11:01N 34°02' E 130°51'3 6.4
2018-Apr-16 10:30N 33°59' E 130°53'3 6.0
2018-Apr-16 10:00N 33°56' E 130°53'3 5.1
2018-Apr-16 09:30N 33°55' E 130°56'2 3.6
2018-Apr-16 08:58N 33°57' E 130°57'0 0.0
2018-Apr-16 08:28N 33°57' E 130°57'0 0.0
2018-Apr-16 07:58N 33°57' E 130°57'0 0.0
2018-Apr-16 07:28N 33°57' E 130°57'0 0.0
2018-Apr-16 06:58N 33°57' E 130°57'0 0.0
2018-Apr-16 06:28N 33°57' E 130°57'0 0.0
2018-Apr-16 05:58N 33°57' E 130°57'0 0.0
2018-Apr-16 05:28N 33°57' E 130°57'0 0.0
2018-Apr-16 04:58N 33°57' E 130°57'0 0.0
2018-Apr-16 04:28N 33°57' E 130°57'0 0.0
2018-Apr-16 03:58N 33°57' E 130°57'0 0.0
2018-Apr-16 03:28N 33°57' E 130°57'0 0.0
2018-Apr-16 02:58N 33°57' E 130°57'0 0.0
2018-Apr-16 02:28N 33°57' E 130°57'0 0.0
2018-Apr-16 01:58N 33°57' E 130°57'0 0.0
2018-Apr-16 01:28N 33°57' E 130°57'0 0.0
2018-Apr-16 00:58N 33°57' E 130°57'0 0.0
2018-Apr-16 00:28N 33°57' E 130°57'0 0.0
2018-Apr-15 23:58N 33°57' E 130°57'0 0.0
2018-Apr-15 23:28N 33°57' E 130°57'0 0.0
2018-Apr-15 22:58N 33°57' E 130°57'0 0.0
2018-Apr-15 22:28N 33°57' E 130°57'0 0.0
2018-Apr-15 21:58N 33°57' E 130°57'0 0.0
2018-Apr-15 21:28N 33°57' E 130°57'0 0.0
2018-Apr-15 20:58N 33°57' E 130°57'0 0.0
2018-Apr-15 20:28N 33°57' E 130°57'0 0.0
2018-Apr-15 19:58N 33°57' E 130°57'0 0.0
2018-Apr-15 19:28N 33°57' E 130°57'0 0.0
2018-Apr-15 18:58N 33°57' E 130°57'0 0.0
2018-Apr-15 18:28N 33°57' E 130°57'0 0.0
2018-Apr-15 17:58N 33°57' E 130°57'0 0.0
2018-Apr-15 17:28N 33°57' E 130°57'0 0.0
2018-Apr-15 16:58N 33°57' E 130°57'0 0.0
2018-Apr-15 16:28N 33°57' E 130°57'0 0.0
2018-Apr-15 15:58N 33°57' E 130°57'0 0.0
2018-Apr-15 15:28N 33°57' E 130°57'0 0.0
2018-Apr-15 14:58N 33°57' E 130°57'0 0.0
2018-Apr-15 14:28N 33°57' E 130°57'0 0.0
2018-Apr-15 13:58N 33°57' E 130°57'0 0.0
2018-Apr-15 13:28N 33°57' E 130°57'0 0.0
2018-Apr-15 12:58N 33°57' E 130°57'0 0.0
2018-Apr-15 12:28N 33°57' E 130°57'0 0.0
2018-Apr-15 11:58N 33°57' E 130°57'0 0.0
2018-Apr-15 11:28N 33°57' E 130°57'0 0.0
2018-Apr-15 10:58N 33°57' E 130°57'0 0.0
2018-Apr-15 10:28N 33°57' E 130°57'0 0.0
2018-Apr-15 09:58N 33°57' E 130°57'0 0.0
2018-Apr-15 09:28N 33°57' E 130°57'0 0.0
2018-Apr-15 08:58N 33°57' E 130°57'0 0.0
2018-Apr-15 08:28N 33°57' E 130°57'0 0.0
2018-Apr-15 07:58N 33°57' E 130°57'0 0.0
2018-Apr-15 07:28N 33°57' E 130°57'0 0.0
2018-Apr-15 06:58N 33°57' E 130°57'0 0.0
2018-Apr-15 06:28N 33°57' E 130°57'0 0.0
2018-Apr-15 05:58N 33°57' E 130°57'0 0.0
2018-Apr-15 05:28N 33°57' E 130°57'0 0.0
2018-Apr-15 04:58N 33°57' E 130°57'0 0.0
2018-Apr-15 04:28N 33°57' E 130°57'0 0.0
2018-Apr-15 03:58N 33°57' E 130°57'0 0.0
2018-Apr-15 03:28N 33°57' E 130°57'0 0.0
2018-Apr-15 02:58N 33°57' E 130°57'0 0.0
2018-Apr-15 02:28N 33°57' E 130°57'0 0.0
2018-Apr-15 01:58N 33°57' E 130°57'0 0.0
2018-Apr-15 01:28N 33°57' E 130°57'0 0.0
2018-Apr-15 00:58N 33°57' E 130°57'0 0.0
2018-Apr-15 00:28N 33°57' E 130°57'0 0.0
2018-Apr-14 23:58N 33°57' E 130°57'0 0.0
2018-Apr-14 23:28N 33°57' E 130°57'0 0.0
2018-Apr-14 22:58N 33°57' E 130°57'0 0.0
2018-Apr-14 22:28N 33°57' E 130°57'0 0.0
2018-Apr-14 21:58N 33°57' E 130°57'0 0.0
2018-Apr-14 21:28N 33°57' E 130°57'0 0.0
2018-Apr-14 20:58N 33°57' E 130°57'0 0.2
2018-Apr-14 20:28N 33°57' E 130°57'0 0.0
2018-Apr-14 19:58N 33°57' E 130°57'0 0.0
2018-Apr-14 19:28N 33°57' E 130°57'0 0.0
2018-Apr-14 18:58N 33°57' E 130°57'0 0.0
2018-Apr-14 18:28N 33°57' E 130°57'0 0.0
2018-Apr-14 17:58N 33°57' E 130°57'0 0.0
2018-Apr-14 17:28N 33°57' E 130°57'0 0.0
2018-Apr-14 16:58N 33°57' E 130°57'0 0.0
2018-Apr-14 16:28N 33°57' E 130°57'0 0.0
2018-Apr-14 15:58N 33°57' E 130°57'0 0.0
2018-Apr-14 15:28N 33°57' E 130°57'0 0.0
2018-Apr-14 14:58N 33°57' E 130°57'0 0.0
2018-Apr-14 14:28N 33°57' E 130°57'0 0.0
2018-Apr-14 13:58N 33°57' E 130°57'0 0.0
2018-Apr-14 13:28N 33°57' E 130°57'0 0.0
2018-Apr-14 12:58N 33°57' E 130°57'0 0.0
2018-Apr-14 12:28N 33°57' E 130°57'0 0.0
2018-Apr-14 11:58N 33°57' E 130°57'0 0.0
2018-Apr-14 11:28N 33°57' E 130°57'0 0.0
2018-Apr-14 10:58N 33°57' E 130°57'0 0.0
2018-Apr-14 10:28N 33°57' E 130°57'0 0.0
2018-Apr-14 09:58N 33°57' E 130°57'0 0.0
2018-Apr-14 09:28N 33°57' E 130°57'0 0.0
2018-Apr-14 08:58N 33°57' E 130°57'0 0.0
2018-Apr-14 08:28N 33°57' E 130°57'0 0.0
2018-Apr-14 07:58N 33°57' E 130°57'0 0.0
2018-Apr-14 07:28N 33°57' E 130°57'0 0.0
2018-Apr-14 06:58N 33°57' E 130°57'0 0.0
2018-Apr-14 06:28N 33°57' E 130°57'0 0.0
2018-Apr-14 05:58N 33°57' E 130°57'0 0.0
2018-Apr-14 05:28N 33°57' E 130°57'0 0.0
2018-Apr-14 04:58N 33°57' E 130°57'0 0.0
2018-Apr-14 04:28N 33°57' E 130°57'0 0.0
2018-Apr-14 03:58N 33°57' E 130°57'0 0.0
2018-Apr-14 03:28N 33°57' E 130°57'0 0.0
2018-Apr-14 02:58N 33°57' E 130°57'0 0.0
2018-Apr-14 02:28N 33°57' E 130°57'0 0.0
2018-Apr-14 01:58N 33°57' E 130°57'0 0.0
2018-Apr-14 01:28N 33°57' E 130°57'0 0.0
2018-Apr-14 00:58N 33°57' E 130°57'0 0.0
2018-Apr-14 00:28N 33°57' E 130°57'0 0.0
2018-Apr-13 23:58N 33°57' E 130°57'0 0.0
2018-Apr-13 23:28N 33°57' E 130°57'0 0.0
2018-Apr-13 22:58N 33°57' E 130°57'0 0.0
2018-Apr-13 22:28N 33°57' E 130°57'0 0.0
2018-Apr-13 21:58N 33°57' E 130°57'0 0.0
2018-Apr-13 21:28N 33°57' E 130°57'0 0.0
2018-Apr-13 20:58N 33°57' E 130°57'0 0.0
2018-Apr-13 20:28N 33°57' E 130°57'0 0.0
2018-Apr-13 19:58N 33°57' E 130°57'0 0.0
2018-Apr-13 19:28N 33°57' E 130°57'0 0.0
2018-Apr-13 18:58N 33°57' E 130°57'0 0.0
2018-Apr-13 18:28N 33°57' E 130°57'0 0.0
2018-Apr-13 17:58N 33°57' E 130°57'0 0.0
2018-Apr-13 17:28N 33°57' E 130°57'0 0.0
2018-Apr-13 16:58N 33°57' E 130°57'0 0.0
2018-Apr-13 16:28N 33°57' E 130°57'0 0.0
2018-Apr-13 15:58N 33°57' E 130°57'0 0.0
2018-Apr-13 15:25N 33°57' E 130°57'0 0.0
2018-Apr-13 14:58N 33°57' E 130°57'0 0.0
2018-Apr-13 14:28N 33°57' E 130°57'0 0.0
2018-Apr-13 13:58N 33°57' E 130°57'0 0.0
2018-Apr-13 13:28N 33°57' E 130°57'0 0.0
2018-Apr-13 12:58N 33°57' E 130°57'0 0.0
2018-Apr-13 12:28N 33°57' E 130°57'0 0.0
2018-Apr-13 11:58N 33°57' E 130°57'0 0.0
2018-Apr-13 11:28N 33°57' E 130°57'0 0.0
2018-Apr-13 10:58N 33°57' E 130°57'0 0.0
2018-Apr-13 10:28N 33°57' E 130°57'0 0.0
2018-Apr-13 09:58N 33°57' E 130°57'1 1.5
2018-Apr-13 09:00N 33°56' E 130°56'2 4.5
2018-Apr-13 08:30N 33°54' E 130°54'3 6.9
2018-Apr-13 08:00N 33°57' E 130°52'4 7.3
2018-Apr-13 07:30N 34°01' E 130°52'4 7.5
2018-Apr-13 07:00N 34°05' E 130°51'4 7.6
2018-Apr-13 06:31N 34°08' E 130°52'2 3.0
2018-Apr-13 06:00N 34°09' E 130°54'0 0.2
2018-Apr-13 05:30N 34°09' E 130°54'0 0.2
2018-Apr-13 05:00N 34°09' E 130°54'0 0.5
2018-Apr-13 04:30N 34°09' E 130°54'1 1.3
2018-Apr-13 04:00N 34°09' E 130°53'3 5.8
2018-Apr-13 03:30N 34°06' E 130°51'3 7.0
2018-Apr-13 03:00N 34°03' E 130°52'4 7.2
2018-Apr-13 02:30N 33°59' E 130°53'3 6.5
2018-Apr-13 01:59N 33°56' E 130°53'3 5.4
2018-Apr-13 01:30N 33°55' E 130°56'4 8.1
2018-Apr-13 01:00N 33°58' E 130°59'3 7.0
2018-Apr-13 00:30N 33°58' E 131°03'4 7.1
2018-Apr-13 00:00N 33°56' E 131°06'3 6.1
2018-Apr-12 23:30N 33°54' E 131°09'2 3.3
2018-Apr-12 23:00N 33°53' E 131°11'2 3.6
2018-Apr-12 22:30N 33°52' E 131°13'3 5.4
2018-Apr-12 22:00N 33°51' E 131°16'3 5.8
2018-Apr-12 21:30N 33°51' E 131°20'3 5.7
2018-Apr-12 21:00N 33°52' E 131°23'3 6.0
2018-Apr-12 20:30N 33°53' E 131°26'3 5.7
2018-Apr-12 20:00N 33°53' E 131°30'2 3.4
2018-Apr-12 19:30N 33°53' E 131°32'2 3.3
2018-Apr-12 19:00N 33°54' E 131°34'2 3.0
2018-Apr-12 18:29N 33°54' E 131°36'2 3.2
2018-Apr-12 17:59N 33°54' E 131°37'2 3.4
2018-Apr-12 17:30N 33°55' E 131°39'2 3.4
2018-Apr-12 17:00N 33°55' E 131°41'2 3.7
2018-Apr-12 16:27N 33°56' E 131°44'2 3.8
2018-Apr-12 15:58N 33°56' E 131°46'2 4.5
2018-Apr-12 15:29N 33°57' E 131°48'2 4.5
2018-Apr-12 15:00N 33°58' E 131°51'0 0.1
2018-Apr-12 14:28N 33°58' E 131°51'0 0.0
2018-Apr-12 13:58N 33°58' E 131°51'0 0.0
2018-Apr-12 13:22N 33°58' E 131°51'0 0.1
2018-Apr-12 12:58N 33°58' E 131°51'0 0.1
2018-Apr-12 12:28N 33°58' E 131°51'0 0.0
2018-Apr-12 11:58N 33°58' E 131°51'0 0.0
2018-Apr-12 11:16N 33°58' E 131°51'0 0.0
2018-Apr-12 10:55N 33°58' E 131°51'0 0.0
2018-Apr-12 08:52N 33°58' E 131°51'0 0.0
2018-Apr-12 07:23N 33°58' E 131°51'1 3.2
2018-Apr-12 07:00N 33°58' E 131°49'15 6.0
2018-Apr-12 04:30N 33°52' E 132°06'7 2.5
2018-Apr-12 01:34N 33°50' E 132°14'1 7.3
2018-Apr-12 01:27N 33°50' E 132°15'4 7.4
2018-Apr-12 00:58N 33°50' E 132°20'11 6.6
2018-Apr-11 23:18N 33°58' E 132°29'3 7.2
2018-Apr-11 22:50N 33°58' E 132°24'0 0.6
2018-Apr-11 22:28N 33°59' E 132°25'8 0.4
2018-Apr-11 02:10N 33°58' E 132°34'1 4.1
2018-Apr-11 01:57N 33°59' E 132°35'2 4.1
2018-Apr-11 01:30N 34°01' E 132°36'3 5.5
2018-Apr-11 01:00N 34°03' E 132°37'3 5.8
2018-Apr-11 00:30N 34°06' E 132°38'3 6.2
2018-Apr-11 00:01N 34°09' E 132°38'11 4.5
2018-Apr-10 21:37N 34°15' E 132°49'78 6.2
2018-Apr-10 09:04N 34°25' E 134°22'0 7.8
2018-Apr-10 09:00N 34°25' E 134°22'4 7.8
2018-Apr-10 08:30N 34°27' E 134°27'4 7.9
2018-Apr-10 08:00N 34°28' E 134°31'4 7.9
2018-Apr-10 07:30N 34°30' E 134°36'4 8.0
2018-Apr-10 07:00N 34°31' E 134°40'4 7.9
2018-Apr-10 06:30N 34°33' E 134°45'4 7.9
2018-Apr-10 06:00N 34°34' E 134°49'4 7.7
2018-Apr-10 05:30N 34°36' E 134°53'4 7.4
2018-Apr-10 05:00N 34°37' E 134°57'3 6.4
2018-Apr-10 04:30N 34°37' E 135°01'3 6.1
2018-Apr-10 04:00N 34°36' E 135°05'4 7.6
2018-Apr-10 03:30N 34°37' E 135°09'4 7.9
2018-Apr-10 03:00N 34°38' E 135°14'4 7.3
2018-Apr-10 02:31N 34°37' E 135°19'3 6.8
2018-Apr-10 02:00N 34°38' E 135°23'3 5.5
2018-Apr-10 01:29N 34°39' E 135°26'0 0.0
2018-Apr-10 00:59N 34°39' E 135°26'0 0.0
2018-Apr-10 00:29N 34°39' E 135°26'0 0.0
2018-Apr-09 23:56N 34°39' E 135°26'0 0.0
2018-Apr-09 23:29N 34°39' E 135°26'0 0.0
2018-Apr-09 22:59N 34°39' E 135°26'0 0.0
2018-Apr-09 22:29N 34°39' E 135°26'0 0.0
2018-Apr-09 21:59N 34°39' E 135°26'0 0.0
2018-Apr-09 21:26N 34°39' E 135°26'0 0.0
2018-Apr-09 20:59N 34°39' E 135°26'0 0.0
2018-Apr-09 20:29N 34°39' E 135°26'0 0.0
2018-Apr-09 19:59N 34°39' E 135°26'0 0.0
2018-Apr-09 19:29N 34°39' E 135°26'0 0.0
2018-Apr-09 18:59N 34°39' E 135°26'0 0.0
2018-Apr-09 18:29N 34°39' E 135°26'0 0.0
2018-Apr-09 17:59N 34°39' E 135°26'0 0.0
2018-Apr-09 17:29N 34°39' E 135°26'0 0.0
2018-Apr-09 16:59N 34°39' E 135°26'0 0.0
2018-Apr-09 16:29N 34°39' E 135°26'0 0.0
2018-Apr-09 15:56N 34°39' E 135°26'0 0.0
2018-Apr-09 15:29N 34°39' E 135°26'0 0.0
2018-Apr-09 14:59N 34°39' E 135°26'0 0.0
2018-Apr-09 14:29N 34°39' E 135°26'0 0.0
2018-Apr-09 13:59N 34°39' E 135°26'0 0.0
2018-Apr-09 13:26N 34°39' E 135°26'0 0.0
2018-Apr-09 12:59N 34°39' E 135°26'0 0.0
2018-Apr-09 12:29N 34°39' E 135°26'0 0.0
2018-Apr-09 11:59N 34°39' E 135°26'0 0.0
2018-Apr-09 11:29N 34°39' E 135°26'0 0.0
2018-Apr-09 10:56N 34°39' E 135°26'0 0.0
2018-Apr-09 10:26N 34°39' E 135°26'0 0.0
2018-Apr-09 09:56N 34°39' E 135°26'0 0.0
2018-Apr-09 09:29N 34°39' E 135°26'0 0.0
2018-Apr-09 08:56N 34°39' E 135°26'0 0.0
2018-Apr-09 08:29N 34°39' E 135°26'0 0.0
2018-Apr-09 07:56N 34°39' E 135°26'0 0.0
2018-Apr-09 07:26N 34°39' E 135°26'0 0.0
2018-Apr-09 06:59N 34°39' E 135°26'0 0.0
2018-Apr-09 06:26N 34°39' E 135°26'0 0.0
2018-Apr-09 05:56N 34°39' E 135°26'0 0.0
2018-Apr-09 05:26N 34°39' E 135°26'0 0.0
2018-Apr-09 04:59N 34°39' E 135°26'0 0.0
2018-Apr-09 04:26N 34°39' E 135°26'0 0.0
2018-Apr-09 03:56N 34°39' E 135°26'0 0.0
2018-Apr-09 03:26N 34°39' E 135°26'0 0.0
2018-Apr-09 02:59N 34°39' E 135°26'0 0.0
2018-Apr-09 02:26N 34°39' E 135°26'0 0.0
2018-Apr-09 01:59N 34°39' E 135°26'0 0.0
2018-Apr-09 01:26N 34°39' E 135°26'0 0.0
2018-Apr-09 00:59N 34°39' E 135°26'0 0.0
2018-Apr-09 00:26N 34°39' E 135°26'0 0.0
2018-Apr-08 23:59N 34°39' E 135°26'0 0.0
2018-Apr-08 23:29N 34°39' E 135°26'0 0.0
2018-Apr-08 22:56N 34°39' E 135°26'0 0.0
2018-Apr-08 22:26N 34°39' E 135°26'0 0.0
2018-Apr-08 21:56N 34°39' E 135°26'0 0.0
2018-Apr-08 21:26N 34°39' E 135°26'0 0.0
2018-Apr-08 20:56N 34°39' E 135°26'0 0.0
2018-Apr-08 20:29N 34°39' E 135°26'0 0.0
2018-Apr-08 19:59N 34°39' E 135°26'0 0.0
2018-Apr-08 19:26N 34°39' E 135°26'0 0.0
2018-Apr-08 18:56N 34°39' E 135°26'0 0.0
2018-Apr-08 18:29N 34°39' E 135°26'0 0.0
2018-Apr-08 17:59N 34°39' E 135°26'0 0.0
2018-Apr-08 17:26N 34°39' E 135°26'0 0.0
2018-Apr-08 16:56N 34°39' E 135°26'0 0.0
2018-Apr-08 16:29N 34°39' E 135°26'0 0.0
2018-Apr-08 15:59N 34°39' E 135°26'0 0.0
2018-Apr-08 15:26N 34°39' E 135°26'0 0.0
2018-Apr-08 14:56N 34°39' E 135°26'0 0.0
2018-Apr-08 14:26N 34°39' E 135°26'0 0.0
2018-Apr-08 13:56N 34°39' E 135°26'0 0.0
2018-Apr-08 13:29N 34°39' E 135°26'0 0.0
2018-Apr-08 12:56N 34°39' E 135°26'0 0.0
2018-Apr-08 12:26N 34°39' E 135°26'0 0.0
2018-Apr-08 11:56N 34°39' E 135°26'0 0.0
2018-Apr-08 11:26N 34°39' E 135°26'0 0.0
2018-Apr-08 10:56N 34°39' E 135°26'0 0.0
2018-Apr-08 10:26N 34°39' E 135°26'0 0.0
2018-Apr-08 09:56N 34°39' E 135°26'0 0.0
2018-Apr-08 09:29N 34°39' E 135°26'0 0.0
2018-Apr-08 08:59N 34°39' E 135°26'0 0.0
2018-Apr-08 08:29N 34°39' E 135°26'0 0.0
2018-Apr-08 07:59N 34°39' E 135°26'0 0.2
2018-Apr-08 07:29N 34°39' E 135°26'0 0.7
2018-Apr-08 06:59N 34°39' E 135°26'0 0.0
2018-Apr-08 06:29N 34°39' E 135°26'0 0.0
2018-Apr-08 05:56N 34°39' E 135°26'0 0.0
2018-Apr-08 05:29N 34°39' E 135°26'0 0.0
2018-Apr-08 04:56N 34°39' E 135°26'0 0.1
2018-Apr-08 04:29N 34°39' E 135°26'0 0.0
2018-Apr-08 03:56N 34°39' E 135°26'0 0.1
2018-Apr-08 03:26N 34°39' E 135°26'0 0.0
2018-Apr-08 02:59N 34°39' E 135°26'0 0.0
2018-Apr-08 02:29N 34°39' E 135°26'0 0.0
2018-Apr-08 01:59N 34°39' E 135°26'0 0.0
2018-Apr-08 01:29N 34°39' E 135°26'0 0.0
2018-Apr-08 00:59N 34°39' E 135°26'0 0.0
2018-Apr-08 00:29N 34°39' E 135°26'0 0.0
2018-Apr-07 23:59N 34°39' E 135°26'0 0.0
2018-Apr-07 23:29N 34°39' E 135°26'0 0.0
2018-Apr-07 22:59N 34°39' E 135°26'0 0.0
2018-Apr-07 22:29N 34°39' E 135°26'0 0.0
2018-Apr-07 21:59N 34°39' E 135°26'0 0.0
2018-Apr-07 21:29N 34°39' E 135°26'0 0.0
2018-Apr-07 20:59N 34°39' E 135°26'0 0.0
2018-Apr-07 20:29N 34°39' E 135°26'0 0.0
2018-Apr-07 19:56N 34°39' E 135°26'0 0.0
2018-Apr-07 19:29N 34°39' E 135°26'0 0.0
2018-Apr-07 18:59N 34°39' E 135°26'0 0.0
2018-Apr-07 18:29N 34°39' E 135°26'0 0.0
2018-Apr-07 17:59N 34°39' E 135°26'0 0.0
2018-Apr-07 17:29N 34°39' E 135°26'0 0.0
2018-Apr-07 16:59N 34°39' E 135°26'0 0.0
2018-Apr-07 16:29N 34°39' E 135°26'0 0.0
2018-Apr-07 15:59N 34°39' E 135°26'0 0.0
2018-Apr-07 15:29N 34°39' E 135°26'0 0.0
2018-Apr-07 14:56N 34°39' E 135°26'0 0.0
2018-Apr-07 14:26N 34°39' E 135°26'0 0.0
2018-Apr-07 13:56N 34°39' E 135°26'0 0.0
2018-Apr-07 13:29N 34°39' E 135°26'0 0.0
2018-Apr-07 12:56N 34°39' E 135°26'0 0.0
2018-Apr-07 12:29N 34°39' E 135°26'0 0.0
2018-Apr-07 11:59N 34°39' E 135°26'0 0.0
2018-Apr-07 11:29N 34°39' E 135°26'0 0.0
2018-Apr-07 10:56N 34°39' E 135°26'0 0.0
2018-Apr-07 10:29N 34°39' E 135°26'0 0.0
2018-Apr-07 09:59N 34°39' E 135°26'0 0.0
2018-Apr-07 09:29N 34°39' E 135°26'0 0.0
2018-Apr-07 08:59N 34°39' E 135°26'0 0.0
2018-Apr-07 08:29N 34°39' E 135°26'0 0.0
2018-Apr-07 07:59N 34°39' E 135°26'0 0.0
2018-Apr-07 07:30N 34°39' E 135°26'0 0.0
2018-Apr-07 07:01N 34°39' E 135°26'0 0.2
2018-Apr-07 06:30N 34°39' E 135°26'1 1.8
2018-Apr-07 06:01N 34°39' E 135°26'1 1.6
2018-Apr-07 05:30N 34°38' E 135°27'0 0.9
2018-Apr-07 05:00N 34°38' E 135°27'0 0.3
2018-Apr-07 04:30N 34°38' E 135°27'0 0.3
2018-Apr-07 04:01N 34°38' E 135°26'3 6.4
2018-Apr-07 03:31N 34°38' E 135°23'4 7.7
2018-Apr-07 03:00N 34°37' E 135°18'4 8.4
2018-Apr-07 02:31N 34°38' E 135°13'2 4.2
2018-Apr-07 02:00N 34°39' E 135°11'2 3.7
2018-Apr-07 01:29N 34°41' E 135°11'0 0.0
2018-Apr-07 00:59N 34°41' E 135°11'0 0.0
2018-Apr-07 00:28N 34°41' E 135°11'0 0.0
2018-Apr-06 23:55N 34°41' E 135°11'0 0.0
2018-Apr-06 23:28N 34°41' E 135°11'0 0.0
2018-Apr-06 22:58N 34°41' E 135°11'0 0.0
2018-Apr-06 22:28N 34°41' E 135°11'0 0.0
2018-Apr-06 21:58N 34°41' E 135°11'0 0.0
2018-Apr-06 21:28N 34°41' E 135°11'0 0.0
2018-Apr-06 20:58N 34°41' E 135°11'0 0.0
2018-Apr-06 20:28N 34°41' E 135°11'0 0.0
2018-Apr-06 19:58N 34°41' E 135°11'0 0.0
2018-Apr-06 19:28N 34°41' E 135°11'0 0.0
2018-Apr-06 18:58N 34°41' E 135°11'  
Track history (hours):
 
Tides and Currents Weather Stations Pressure Air Temp Water Temp Dewpoint Dewpoint Depression Visibility Wind Speed Wind Dir Waves Ship Positions

Akogare (Japan)

Ship's website: http://www.akogare.or.jp/eng/top.html

Last reported at 2018-Apr-16 18:45 UTC. Time now 2018-Apr-20 06:34 UTC.
Position N 33°41' E 129°55'.

Length 52 m; draft 4.5 m.

Type: Sailing vessel. MMSI: 431005001.

Date/timePositionNaut miles runAvg speedWind from/ knotsBaromVisibWave heightAir tempDewpointWater temp
2018-Apr-16 18:45N 33°41' E 129°55'3 7.0
2018-Apr-16 18:20N 33°42' E 129°59'2 6.9
2018-Apr-16 18:00N 33°44' E 130°01'3 6.8
2018-Apr-16 17:30N 33°45' E 130°04'3 6.7
2018-Apr-16 17:00N 33°47' E 130°08'3 6.5
2018-Apr-16 16:30N 33°49' E 130°11'3 6.4
2018-Apr-16 16:00N 33°51' E 130°14'3 6.6
2018-Apr-16 15:30N 33°53' E 130°18'3 6.5
2018-Apr-16 15:00N 33°54' E 130°21'3 6.2
2018-Apr-16 14:30N 33°56' E 130°24'3 6.5
2018-Apr-16 14:00N 33°58' E 130°27'3 6.9
2018-Apr-16 13:30N 33°59' E 130°31'4 7.0
2018-Apr-16 12:59N 34°01' E 130°35'3 7.2
2018-Apr-16 12:30N 34°02' E 130°39'4 7.3
2018-Apr-16 12:00N 34°03' E 130°43'3 6.7
2018-Apr-16 11:30N 34°03' E 130°47'3 6.6
2018-Apr-16 11:01N 34°02' E 130°51'3 6.4
2018-Apr-16 10:30N 33°59' E 130°53'3 6.0
2018-Apr-16 10:00N 33°56' E 130°53'3 5.1
2018-Apr-16 09:30N 33°55' E 130°56'2 3.6
2018-Apr-16 08:58N 33°57' E 130°57'0 0.0
2018-Apr-16 08:28N 33°57' E 130°57'0 0.0
2018-Apr-16 07:58N 33°57' E 130°57'0 0.0
2018-Apr-16 07:28N 33°57' E 130°57'0 0.0
2018-Apr-16 06:58N 33°57' E 130°57'0 0.0
2018-Apr-16 06:28N 33°57' E 130°57'0 0.0
2018-Apr-16 05:58N 33°57' E 130°57'0 0.0
2018-Apr-16 05:28N 33°57' E 130°57'0 0.0
2018-Apr-16 04:58N 33°57' E 130°57'0 0.0
2018-Apr-16 04:28N 33°57' E 130°57'0 0.0
2018-Apr-16 03:58N 33°57' E 130°57'0 0.0
2018-Apr-16 03:28N 33°57' E 130°57'0 0.0
2018-Apr-16 02:58N 33°57' E 130°57'0 0.0
2018-Apr-16 02:28N 33°57' E 130°57'0 0.0
2018-Apr-16 01:58N 33°57' E 130°57'0 0.0
2018-Apr-16 01:28N 33°57' E 130°57'0 0.0
2018-Apr-16 00:58N 33°57' E 130°57'0 0.0
2018-Apr-16 00:28N 33°57' E 130°57'0 0.0
2018-Apr-15 23:58N 33°57' E 130°57'0 0.0
2018-Apr-15 23:28N 33°57' E 130°57'0 0.0
2018-Apr-15 22:58N 33°57' E 130°57'0 0.0
2018-Apr-15 22:28N 33°57' E 130°57'0 0.0
2018-Apr-15 21:58N 33°57' E 130°57'0 0.0
2018-Apr-15 21:28N 33°57' E 130°57'0 0.0
2018-Apr-15 20:58N 33°57' E 130°57'0 0.0
2018-Apr-15 20:28N 33°57' E 130°57'0 0.0
2018-Apr-15 19:58N 33°57' E 130°57'0 0.0
2018-Apr-15 19:28N 33°57' E 130°57'0 0.0
2018-Apr-15 18:58N 33°57' E 130°57'0 0.0
2018-Apr-15 18:28N 33°57' E 130°57'0 0.0
2018-Apr-15 17:58N 33°57' E 130°57'0 0.0
2018-Apr-15 17:28N 33°57' E 130°57'0 0.0
2018-Apr-15 16:58N 33°57' E 130°57'0 0.0
2018-Apr-15 16:28N 33°57' E 130°57'0 0.0
2018-Apr-15 15:58N 33°57' E 130°57'0 0.0
2018-Apr-15 15:28N 33°57' E 130°57'0 0.0
2018-Apr-15 14:58N 33°57' E 130°57'0 0.0
2018-Apr-15 14:28N 33°57' E 130°57'0 0.0
2018-Apr-15 13:58N 33°57' E 130°57'0 0.0
2018-Apr-15 13:28N 33°57' E 130°57'0 0.0
2018-Apr-15 12:58N 33°57' E 130°57'0 0.0
2018-Apr-15 12:28N 33°57' E 130°57'0 0.0
2018-Apr-15 11:58N 33°57' E 130°57'0 0.0
2018-Apr-15 11:28N 33°57' E 130°57'0 0.0
2018-Apr-15 10:58N 33°57' E 130°57'0 0.0
2018-Apr-15 10:28N 33°57' E 130°57'0 0.0
2018-Apr-15 09:58N 33°57' E 130°57'0 0.0
2018-Apr-15 09:28N 33°57' E 130°57'0 0.0
2018-Apr-15 08:58N 33°57' E 130°57'0 0.0
2018-Apr-15 08:28N 33°57' E 130°57'0 0.0
2018-Apr-15 07:58N 33°57' E 130°57'0 0.0
2018-Apr-15 07:28N 33°57' E 130°57'0 0.0
2018-Apr-15 06:58N 33°57' E 130°57'0 0.0
2018-Apr-15 06:28N 33°57' E 130°57'0 0.0
2018-Apr-15 05:58N 33°57' E 130°57'0 0.0
2018-Apr-15 05:28N 33°57' E 130°57'0 0.0
2018-Apr-15 04:58N 33°57' E 130°57'0 0.0
2018-Apr-15 04:28N 33°57' E 130°57'0 0.0
2018-Apr-15 03:58N 33°57' E 130°57'0 0.0
2018-Apr-15 03:28N 33°57' E 130°57'0 0.0
2018-Apr-15 02:58N 33°57' E 130°57'0 0.0
2018-Apr-15 02:28N 33°57' E 130°57'0 0.0
2018-Apr-15 01:58N 33°57' E 130°57'0 0.0
2018-Apr-15 01:28N 33°57' E 130°57'0 0.0
2018-Apr-15 00:58N 33°57' E 130°57'0 0.0
2018-Apr-15 00:28N 33°57' E 130°57'0 0.0
2018-Apr-14 23:58N 33°57' E 130°57'0 0.0
2018-Apr-14 23:28N 33°57' E 130°57'0 0.0
2018-Apr-14 22:58N 33°57' E 130°57'0 0.0
2018-Apr-14 22:28N 33°57' E 130°57'0 0.0
2018-Apr-14 21:58N 33°57' E 130°57'0 0.0
2018-Apr-14 21:28N 33°57' E 130°57'0 0.0
2018-Apr-14 20:58N 33°57' E 130°57'0 0.2
2018-Apr-14 20:28N 33°57' E 130°57'0 0.0
2018-Apr-14 19:58N 33°57' E 130°57'0 0.0
2018-Apr-14 19:28N 33°57' E 130°57'0 0.0
2018-Apr-14 18:58N 33°57' E 130°57'0 0.0
2018-Apr-14 18:28N 33°57' E 130°57'0 0.0
2018-Apr-14 17:58N 33°57' E 130°57'0 0.0
2018-Apr-14 17:28N 33°57' E 130°57'0 0.0
2018-Apr-14 16:58N 33°57' E 130°57'0 0.0
2018-Apr-14 16:28N 33°57' E 130°57'0 0.0
2018-Apr-14 15:58N 33°57' E 130°57'0 0.0
2018-Apr-14 15:28N 33°57' E 130°57'0 0.0
2018-Apr-14 14:58N 33°57' E 130°57'0 0.0
2018-Apr-14 14:28N 33°57' E 130°57'0 0.0
2018-Apr-14 13:58N 33°57' E 130°57'0 0.0
2018-Apr-14 13:28N 33°57' E 130°57'0 0.0
2018-Apr-14 12:58N 33°57' E 130°57'0 0.0
2018-Apr-14 12:28N 33°57' E 130°57'0 0.0
2018-Apr-14 11:58N 33°57' E 130°57'0 0.0
2018-Apr-14 11:28N 33°57' E 130°57'0 0.0
2018-Apr-14 10:58N 33°57' E 130°57'0 0.0
2018-Apr-14 10:28N 33°57' E 130°57'0 0.0
2018-Apr-14 09:58N 33°57' E 130°57'0 0.0
2018-Apr-14 09:28N 33°57' E 130°57'0 0.0
2018-Apr-14 08:58N 33°57' E 130°57'0 0.0
2018-Apr-14 08:28N 33°57' E 130°57'0 0.0
2018-Apr-14 07:58N 33°57' E 130°57'0 0.0
2018-Apr-14 07:28N 33°57' E 130°57'0 0.0
2018-Apr-14 06:58N 33°57' E 130°57'0 0.0
2018-Apr-14 06:28N 33°57' E 130°57'0 0.0
2018-Apr-14 05:58N 33°57' E 130°57'0 0.0
2018-Apr-14 05:28N 33°57' E 130°57'0 0.0
2018-Apr-14 04:58N 33°57' E 130°57'0 0.0
2018-Apr-14 04:28N 33°57' E 130°57'0 0.0
2018-Apr-14 03:58N 33°57' E 130°57'0 0.0
2018-Apr-14 03:28N 33°57' E 130°57'0 0.0
2018-Apr-14 02:58N 33°57' E 130°57'0 0.0
2018-Apr-14 02:28N 33°57' E 130°57'0 0.0
2018-Apr-14 01:58N 33°57' E 130°57'0 0.0
2018-Apr-14 01:28N 33°57' E 130°57'0 0.0
2018-Apr-14 00:58N 33°57' E 130°57'0 0.0
2018-Apr-14 00:28N 33°57' E 130°57'0 0.0
2018-Apr-13 23:58N 33°57' E 130°57'0 0.0
2018-Apr-13 23:28N 33°57' E 130°57'0 0.0
2018-Apr-13 22:58N 33°57' E 130°57'0 0.0
2018-Apr-13 22:28N 33°57' E 130°57'0 0.0
2018-Apr-13 21:58N 33°57' E 130°57'0 0.0
2018-Apr-13 21:28N 33°57' E 130°57'0 0.0
2018-Apr-13 20:58N 33°57' E 130°57'0 0.0
2018-Apr-13 20:28N 33°57' E 130°57'0 0.0
2018-Apr-13 19:58N 33°57' E 130°57'0 0.0
2018-Apr-13 19:28N 33°57' E 130°57'0 0.0
2018-Apr-13 18:58N 33°57' E 130°57'0 0.0
2018-Apr-13 18:28N 33°57' E 130°57'0 0.0
2018-Apr-13 17:58N 33°57' E 130°57'0 0.0
2018-Apr-13 17:28N 33°57' E 130°57'0 0.0
2018-Apr-13 16:58N 33°57' E 130°57'0 0.0
2018-Apr-13 16:28N 33°57' E 130°57'0 0.0
2018-Apr-13 15:58N 33°57' E 130°57'0 0.0
2018-Apr-13 15:25N 33°57' E 130°57'0 0.0
2018-Apr-13 14:58N 33°57' E 130°57'0 0.0
2018-Apr-13 14:28N 33°57' E 130°57'0 0.0
2018-Apr-13 13:58N 33°57' E 130°57'0 0.0
2018-Apr-13 13:28N 33°57' E 130°57'0 0.0
2018-Apr-13 12:58N 33°57' E 130°57'0 0.0
2018-Apr-13 12:28N 33°57' E 130°57'0 0.0
2018-Apr-13 11:58N 33°57' E 130°57'0 0.0
2018-Apr-13 11:28N 33°57' E 130°57'0 0.0
2018-Apr-13 10:58N 33°57' E 130°57'0 0.0
2018-Apr-13 10:28N 33°57' E 130°57'0 0.0
2018-Apr-13 09:58N 33°57' E 130°57'1 1.5
2018-Apr-13 09:00N 33°56' E 130°56'2 4.5
2018-Apr-13 08:30N 33°54' E 130°54'3 6.9
2018-Apr-13 08:00N 33°57' E 130°52'4 7.3
2018-Apr-13 07:30N 34°01' E 130°52'4 7.5
2018-Apr-13 07:00N 34°05' E 130°51'4 7.6
2018-Apr-13 06:31N 34°08' E 130°52'2 3.0
2018-Apr-13 06:00N 34°09' E 130°54'0 0.2
2018-Apr-13 05:30N 34°09' E 130°54'0 0.2
2018-Apr-13 05:00N 34°09' E 130°54'0 0.5
2018-Apr-13 04:30N 34°09' E 130°54'1 1.3
2018-Apr-13 04:00N 34°09' E 130°53'3 5.8
2018-Apr-13 03:30N 34°06' E 130°51'3 7.0
2018-Apr-13 03:00N 34°03' E 130°52'4 7.2
2018-Apr-13 02:30N 33°59' E 130°53'3 6.5
2018-Apr-13 01:59N 33°56' E 130°53'3 5.4
2018-Apr-13 01:30N 33°55' E 130°56'4 8.1
2018-Apr-13 01:00N 33°58' E 130°59'3 7.0
2018-Apr-13 00:30N 33°58' E 131°03'4 7.1
2018-Apr-13 00:00N 33°56' E 131°06'3 6.1
2018-Apr-12 23:30N 33°54' E 131°09'2 3.3
2018-Apr-12 23:00N 33°53' E 131°11'2 3.6
2018-Apr-12 22:30N 33°52' E 131°13'3 5.4
2018-Apr-12 22:00N 33°51' E 131°16'3 5.8
2018-Apr-12 21:30N 33°51' E 131°20'3 5.7
2018-Apr-12 21:00N 33°52' E 131°23'3 6.0
2018-Apr-12 20:30N 33°53' E 131°26'3 5.7
2018-Apr-12 20:00N 33°53' E 131°30'2 3.4
2018-Apr-12 19:30N 33°53' E 131°32'2 3.3
2018-Apr-12 19:00N 33°54' E 131°34'2 3.0
2018-Apr-12 18:29N 33°54' E 131°36'2 3.2
2018-Apr-12 17:59N 33°54' E 131°37'2 3.4
2018-Apr-12 17:30N 33°55' E 131°39'2 3.4
2018-Apr-12 17:00N 33°55' E 131°41'2 3.7
2018-Apr-12 16:27N 33°56' E 131°44'2 3.8
2018-Apr-12 15:58N 33°56' E 131°46'2 4.5
2018-Apr-12 15:29N 33°57' E 131°48'2 4.5
2018-Apr-12 15:00N 33°58' E 131°51'0 0.1
2018-Apr-12 14:28N 33°58' E 131°51'0 0.0
2018-Apr-12 13:58N 33°58' E 131°51'0 0.0
2018-Apr-12 13:22N 33°58' E 131°51'0 0.1
2018-Apr-12 12:58N 33°58' E 131°51'0 0.1
2018-Apr-12 12:28N 33°58' E 131°51'0 0.0
2018-Apr-12 11:58N 33°58' E 131°51'0 0.0
2018-Apr-12 11:16N 33°58' E 131°51'0 0.0
2018-Apr-12 10:55N 33°58' E 131°51'0 0.0
2018-Apr-12 08:52N 33°58' E 131°51'0 0.0
2018-Apr-12 07:23N 33°58' E 131°51'1 3.2
2018-Apr-12 07:00N 33°58' E 131°49'15 6.0
2018-Apr-12 04:30N 33°52' E 132°06'7 2.5
2018-Apr-12 01:34N 33°50' E 132°14'1 7.3
2018-Apr-12 01:27N 33°50' E 132°15'4 7.4
2018-Apr-12 00:58N 33°50' E 132°20'11 6.6
2018-Apr-11 23:18N 33°58' E 132°29'3 7.2
2018-Apr-11 22:50N 33°58' E 132°24'0 0.6
2018-Apr-11 22:28N 33°59' E 132°25'8 0.4
2018-Apr-11 02:10N 33°58' E 132°34'1 4.1
2018-Apr-11 01:57N 33°59' E 132°35'2 4.1
2018-Apr-11 01:30N 34°01' E 132°36'3 5.5
2018-Apr-11 01:00N 34°03' E 132°37'3 5.8
2018-Apr-11 00:30N 34°06' E 132°38'3 6.2
2018-Apr-11 00:01N 34°09' E 132°38'11 4.5
2018-Apr-10 21:37N 34°15' E 132°49'78 6.2
2018-Apr-10 09:04N 34°25' E 134°22'0 7.8
2018-Apr-10 09:00N 34°25' E 134°22'4 7.8
2018-Apr-10 08:30N 34°27' E 134°27'4 7.9
2018-Apr-10 08:00N 34°28' E 134°31'4 7.9
2018-Apr-10 07:30N 34°30' E 134°36'4 8.0
2018-Apr-10 07:00N 34°31' E 134°40'4 7.9
2018-Apr-10 06:30N 34°33' E 134°45'4 7.9
2018-Apr-10 06:00N 34°34' E 134°49'4 7.7
2018-Apr-10 05:30N 34°36' E 134°53'4 7.4
2018-Apr-10 05:00N 34°37' E 134°57'3 6.4
2018-Apr-10 04:30N 34°37' E 135°01'3 6.1
2018-Apr-10 04:00N 34°36' E 135°05'4 7.6
2018-Apr-10 03:30N 34°37' E 135°09'4 7.9
2018-Apr-10 03:00N 34°38' E 135°14'4 7.3
2018-Apr-10 02:31N 34°37' E 135°19'3 6.8
2018-Apr-10 02:00N 34°38' E 135°23'3 5.5
2018-Apr-10 01:29N 34°39' E 135°26'0 0.0
2018-Apr-10 00:59N 34°39' E 135°26'0 0.0
2018-Apr-10 00:29N 34°39' E 135°26'0 0.0
2018-Apr-09 23:56N 34°39' E 135°26'0 0.0
2018-Apr-09 23:29N 34°39' E 135°26'0 0.0
2018-Apr-09 22:59N 34°39' E 135°26'0 0.0
2018-Apr-09 22:29N 34°39' E 135°26'0 0.0
2018-Apr-09 21:59N 34°39' E 135°26'0 0.0
2018-Apr-09 21:26N 34°39' E 135°26'0 0.0
2018-Apr-09 20:59N 34°39' E 135°26'0 0.0
2018-Apr-09 20:29N 34°39' E 135°26'0 0.0
2018-Apr-09 19:59N 34°39' E 135°26'0 0.0
2018-Apr-09 19:29N 34°39' E 135°26'0 0.0
2018-Apr-09 18:59N 34°39' E 135°26'0 0.0
2018-Apr-09 18:29N 34°39' E 135°26'0 0.0
2018-Apr-09 17:59N 34°39' E 135°26'0 0.0
2018-Apr-09 17:29N 34°39' E 135°26'0 0.0
2018-Apr-09 16:59N 34°39' E 135°26'0 0.0
2018-Apr-09 16:29N 34°39' E 135°26'0 0.0
2018-Apr-09 15:56N 34°39' E 135°26'0 0.0
2018-Apr-09 15:29N 34°39' E 135°26'0 0.0
2018-Apr-09 14:59N 34°39' E 135°26'0 0.0
2018-Apr-09 14:29N 34°39' E 135°26'0 0.0
2018-Apr-09 13:59N 34°39' E 135°26'0 0.0
2018-Apr-09 13:26N 34°39' E 135°26'0 0.0
2018-Apr-09 12:59N 34°39' E 135°26'0 0.0
2018-Apr-09 12:29N 34°39' E 135°26'0 0.0
2018-Apr-09 11:59N 34°39' E 135°26'0 0.0
2018-Apr-09 11:29N 34°39' E 135°26'0 0.0
2018-Apr-09 10:56N 34°39' E 135°26'0 0.0
2018-Apr-09 10:26N 34°39' E 135°26'0 0.0
2018-Apr-09 09:56N 34°39' E 135°26'0 0.0
2018-Apr-09 09:29N 34°39' E 135°26'0 0.0
2018-Apr-09 08:56N 34°39' E 135°26'0 0.0
2018-Apr-09 08:29N 34°39' E 135°26'0 0.0
2018-Apr-09 07:56N 34°39' E 135°26'0 0.0
2018-Apr-09 07:26N 34°39' E 135°26'0 0.0
2018-Apr-09 06:59N 34°39' E 135°26'0 0.0
2018-Apr-09 06:26N 34°39' E 135°26'0 0.0
2018-Apr-09 05:56N 34°39' E 135°26'0 0.0
2018-Apr-09 05:26N 34°39' E 135°26'0 0.0
2018-Apr-09 04:59N 34°39' E 135°26'0 0.0
2018-Apr-09 04:26N 34°39' E 135°26'0 0.0
2018-Apr-09 03:56N 34°39' E 135°26'0 0.0
2018-Apr-09 03:26N 34°39' E 135°26'0 0.0
2018-Apr-09 02:59N 34°39' E 135°26'0 0.0
2018-Apr-09 02:26N 34°39' E 135°26'0 0.0
2018-Apr-09 01:59N 34°39' E 135°26'0 0.0
2018-Apr-09 01:26N 34°39' E 135°26'0 0.0
2018-Apr-09 00:59N 34°39' E 135°26'0 0.0
2018-Apr-09 00:26N 34°39' E 135°26'0 0.0
2018-Apr-08 23:59N 34°39' E 135°26'0 0.0
2018-Apr-08 23:29N 34°39' E 135°26'0 0.0
2018-Apr-08 22:56N 34°39' E 135°26'0 0.0
2018-Apr-08 22:26N 34°39' E 135°26'0 0.0
2018-Apr-08 21:56N 34°39' E 135°26'0 0.0
2018-Apr-08 21:26N 34°39' E 135°26'0 0.0
2018-Apr-08 20:56N 34°39' E 135°26'0 0.0
2018-Apr-08 20:29N 34°39' E 135°26'0 0.0
2018-Apr-08 19:59N 34°39' E 135°26'0 0.0
2018-Apr-08 19:26N 34°39' E 135°26'0 0.0
2018-Apr-08 18:56N 34°39' E 135°26'0 0.0
2018-Apr-08 18:29N 34°39' E 135°26'0 0.0
2018-Apr-08 17:59N 34°39' E 135°26'0 0.0
2018-Apr-08 17:26N 34°39' E 135°26'0 0.0
2018-Apr-08 16:56N 34°39' E 135°26'0 0.0
2018-Apr-08 16:29N 34°39' E 135°26'0 0.0
2018-Apr-08 15:59N 34°39' E 135°26'0 0.0
2018-Apr-08 15:26N 34°39' E 135°26'0 0.0
2018-Apr-08 14:56N 34°39' E 135°26'0 0.0
2018-Apr-08 14:26N 34°39' E 135°26'0 0.0
2018-Apr-08 13:56N 34°39' E 135°26'0 0.0
2018-Apr-08 13:29N 34°39' E 135°26'0 0.0
2018-Apr-08 12:56N 34°39' E 135°26'0 0.0
2018-Apr-08 12:26N 34°39' E 135°26'0 0.0
2018-Apr-08 11:56N 34°39' E 135°26'0 0.0
2018-Apr-08 11:26N 34°39' E 135°26'0 0.0
2018-Apr-08 10:56N 34°39' E 135°26'0 0.0
2018-Apr-08 10:26N 34°39' E 135°26'0 0.0
2018-Apr-08 09:56N 34°39' E 135°26'0 0.0
2018-Apr-08 09:29N 34°39' E 135°26'0 0.0
2018-Apr-08 08:59N 34°39' E 135°26'0 0.0
2018-Apr-08 08:29N 34°39' E 135°26'0 0.0
2018-Apr-08 07:59N 34°39' E 135°26'0 0.2
2018-Apr-08 07:29N 34°39' E 135°26'0 0.7
2018-Apr-08 06:59N 34°39' E 135°26'0 0.0
2018-Apr-08 06:29N 34°39' E 135°26'0 0.0
2018-Apr-08 05:56N 34°39' E 135°26'0 0.0
2018-Apr-08 05:29N 34°39' E 135°26'0 0.0
2018-Apr-08 04:56N 34°39' E 135°26'0 0.1
2018-Apr-08 04:29N 34°39' E 135°26'0 0.0
2018-Apr-08 03:56N 34°39' E 135°26'0 0.1
2018-Apr-08 03:26N 34°39' E 135°26'0 0.0
2018-Apr-08 02:59N 34°39' E 135°26'0 0.0
2018-Apr-08 02:29N 34°39' E 135°26'0 0.0
2018-Apr-08 01:59N 34°39' E 135°26'0 0.0
2018-Apr-08 01:29N 34°39' E 135°26'0 0.0
2018-Apr-08 00:59N 34°39' E 135°26'0 0.0
2018-Apr-08 00:29N 34°39' E 135°26'0 0.0
2018-Apr-07 23:59N 34°39' E 135°26'0 0.0
2018-Apr-07 23:29N 34°39' E 135°26'0 0.0
2018-Apr-07 22:59N 34°39' E 135°26'0 0.0
2018-Apr-07 22:29N 34°39' E 135°26'0 0.0
2018-Apr-07 21:59N 34°39' E 135°26'0 0.0
2018-Apr-07 21:29N 34°39' E 135°26'0 0.0
2018-Apr-07 20:59N 34°39' E 135°26'0 0.0
2018-Apr-07 20:29N 34°39' E 135°26'0 0.0
2018-Apr-07 19:56N 34°39' E 135°26'0 0.0
2018-Apr-07 19:29N 34°39' E 135°26'0 0.0
2018-Apr-07 18:59N 34°39' E 135°26'0 0.0
2018-Apr-07 18:29N 34°39' E 135°26'0 0.0
2018-Apr-07 17:59N 34°39' E 135°26'0 0.0
2018-Apr-07 17:29N 34°39' E 135°26'0 0.0
2018-Apr-07 16:59N 34°39' E 135°26'0 0.0
2018-Apr-07 16:29N 34°39' E 135°26'0 0.0
2018-Apr-07 15:59N 34°39' E 135°26'0 0.0
2018-Apr-07 15:29N 34°39' E 135°26'0 0.0
2018-Apr-07 14:56N 34°39' E 135°26'0 0.0
2018-Apr-07 14:26N 34°39' E 135°26'0 0.0
2018-Apr-07 13:56N 34°39' E 135°26'0 0.0
2018-Apr-07 13:29N 34°39' E 135°26'0 0.0
2018-Apr-07 12:56N 34°39' E 135°26'0 0.0
2018-Apr-07 12:29N 34°39' E 135°26'0 0.0
2018-Apr-07 11:59N 34°39' E 135°26'0 0.0
2018-Apr-07 11:29N 34°39' E 135°26'0 0.0
2018-Apr-07 10:56N 34°39' E 135°26'0 0.0
2018-Apr-07 10:29N 34°39' E 135°26'0 0.0
2018-Apr-07 09:59N 34°39' E 135°26'0 0.0
2018-Apr-07 09:29N 34°39' E 135°26'0 0.0
2018-Apr-07 08:59N 34°39' E 135°26'0 0.0
2018-Apr-07 08:29N 34°39' E 135°26'0 0.0
2018-Apr-07 07:59N 34°39' E 135°26'0 0.0
2018-Apr-07 07:30N 34°39' E 135°26'0 0.0
2018-Apr-07 07:01N 34°39' E 135°26'0 0.2
2018-Apr-07 06:30N 34°39' E 135°26'1 1.8
2018-Apr-07 06:01N 34°39' E 135°26'1 1.6
2018-Apr-07 05:30N 34°38' E 135°27'0 0.9
2018-Apr-07 05:00N 34°38' E 135°27'0 0.3
2018-Apr-07 04:30N 34°38' E 135°27'0 0.3
2018-Apr-07 04:01N 34°38' E 135°26'3 6.4
2018-Apr-07 03:31N 34°38' E 135°23'4 7.7
2018-Apr-07 03:00N 34°37' E 135°18'4 8.4
2018-Apr-07 02:31N 34°38' E 135°13'2 4.2
2018-Apr-07 02:00N 34°39' E 135°11'2 3.7
2018-Apr-07 01:29N 34°41' E 135°11'0 0.0
2018-Apr-07 00:59N 34°41' E 135°11'0 0.0
2018-Apr-07 00:28N 34°41' E 135°11'0 0.0
2018-Apr-06 23:55N 34°41' E 135°11'0 0.0
2018-Apr-06 23:28N 34°41' E 135°11'0 0.0
2018-Apr-06 22:58N 34°41' E 135°11'0 0.0
2018-Apr-06 22:28N 34°41' E 135°11'0 0.0
2018-Apr-06 21:58N 34°41' E 135°11'0 0.0
2018-Apr-06 21:28N 34°41' E 135°11'0 0.0
2018-Apr-06 20:58N 34°41' E 135°11'0 0.0
2018-Apr-06 20:28N 34°41' E 135°11'0 0.0
2018-Apr-06 19:58N 34°41' E 135°11'0 0.0
2018-Apr-06 19:28N 34°41' E 135°11'0 0.0
2018-Apr-06 18:58N 34°41' E 135°11'  

Dump ship's entire track history